»·PEaware :: SWA1473 KSJC-KPDX

SWA1473 :: KSJC-KPDX

FLIGHT INFORMATION

Flight Status: Arrived
Operator:
Southwest Airlines
More flights by this operator :: More flights under this callsign
Pilot: Steve F. (26981)
Aircraft: BOEING 737-800
(B738)
More flights by this aircraft type
Origin: KSJC Mineta San Jose Intl
United States
Destination: KPDX Portland Intl
United States
More flights between these airports :: More routes between these airports
Route: BMRNG4 HRNER MACHU TMBRS2
File this flight plan on PilotEdge
Remarks:
Altitude:
(Current/Filed)
38,000ft
Speed:
(Current/Filed)
430kts
Departed: 02-Dec-19 02:33 PM
Arrived: 02-Dec-19 03:57 PM
Distance/Time
Traveled:
495nm/1:24
Distance/Time
To Go:
Arrived

Flight Plot

Page will automatically refresh every two minutes.

Flight plan parsing failed; only flown route is shown


Map Options




Map Legend


Flown Route
Filed Route
Departure Airport
Arrival Airport
Navaid (VOR, NDB)
Fix

Horizontal Profiles

Position Reports

Time Latitude Longitude Heading Altitude Ground
Speed
02-Dec-19 14:13 37.362961 -121.922042 46 70ft 0kts
02-Dec-19 14:14 37.362961 -121.922042 46 70ft 0kts
02-Dec-19 14:14 37.362961 -121.922042 46 70ft 0kts
02-Dec-19 14:15 37.362961 -121.922042 46 70ft 0kts
02-Dec-19 14:16 37.362961 -121.922042 46 70ft 0kts
02-Dec-19 14:17 37.362961 -121.922042 46 70ft 0kts
02-Dec-19 14:18 37.362961 -121.922042 46 70ft 0kts
02-Dec-19 14:19 37.362961 -121.922042 46 70ft 0kts
02-Dec-19 14:20 37.362961 -121.922042 46 70ft 0kts
02-Dec-19 14:21 37.362961 -121.922042 46 70ft 0kts
02-Dec-19 14:22 37.362752 -121.922500 79 70ft 2kts
02-Dec-19 14:23 37.362739 -121.922681 90 70ft 0kts
02-Dec-19 14:24 37.362739 -121.922679 90 70ft 0kts
02-Dec-19 14:25 37.362739 -121.922677 90 70ft 0kts
02-Dec-19 14:26 37.362739 -121.922675 90 70ft 0kts
02-Dec-19 14:27 37.362751 -121.923743 317 70ft 19kts
02-Dec-19 14:28 37.368758 -121.930407 318 70ft 31kts
02-Dec-19 14:29 37.373476 -121.935894 253 70ft 7kts
02-Dec-19 14:30 37.375662 -121.939412 241 70ft 7kts
02-Dec-19 14:31 37.375576 -121.939570 232 70ft 0kts
02-Dec-19 14:32 37.373185 -121.938182 138 70ft 60kts
02-Dec-19 14:33 37.342830 -121.906173 139 1948ft 177kts
02-Dec-19 14:34 37.299901 -121.859145 139 4245ft 234kts
02-Dec-19 14:35 37.251946 -121.804814 143 6868ft 244kts
02-Dec-19 14:36 37.225272 -121.728706 72 9926ft 284kts
02-Dec-19 14:37 37.299064 -121.689089 346 11602ft 349kts
02-Dec-19 14:38 37.391424 -121.740595 316 13798ft 375kts
02-Dec-19 14:39 37.474871 -121.822698 315 16753ft 389kts
02-Dec-19 14:40 37.561879 -121.910352 314 19166ft 409kts
02-Dec-19 14:41 37.668851 -121.970520 348 21412ft 451kts
02-Dec-19 14:42 37.796702 -121.981667 351 23382ft 469kts
02-Dec-19 14:43 37.928706 -121.992712 351 25248ft 481kts
02-Dec-19 14:44 38.063733 -122.004291 351 26923ft 491kts
02-Dec-19 14:45 38.201210 -122.016216 351 28442ft 499kts
02-Dec-19 14:46 38.340695 -122.028991 349 29812ft 505kts
02-Dec-19 14:47 38.479334 -122.052244 347 31452ft 499kts
02-Dec-19 14:48 38.616661 -122.075349 347 32945ft 497kts
02-Dec-19 14:49 38.752696 -122.097953 347 34421ft 491kts
02-Dec-19 14:50 38.887848 -122.120312 347 35847ft 485kts
02-Dec-19 14:51 39.020968 -122.142443 348 37119ft 480kts
02-Dec-19 14:52 39.152740 -122.164432 348 38178ft 477kts
02-Dec-19 14:53 39.284679 -122.186533 348 38192ft 474kts
02-Dec-19 14:54 39.415268 -122.208496 348 38198ft 472kts
02-Dec-19 14:55 39.545524 -122.230498 348 38203ft 471kts
02-Dec-19 14:56 39.674938 -122.252419 348 38207ft 471kts
02-Dec-19 14:57 39.805107 -122.274568 348 38207ft 470kts
02-Dec-19 14:58 39.934797 -122.296701 348 38215ft 470kts
02-Dec-19 14:59 40.064466 -122.318925 348 38215ft 468kts
02-Dec-19 15:00 40.193722 -122.341215 348 38220ft 468kts
02-Dec-19 15:01 40.322513 -122.363424 348 38214ft 467kts
02-Dec-19 15:02 40.451247 -122.385746 349 38210ft 466kts
02-Dec-19 15:03 40.579576 -122.408104 349 38209ft 465kts
02-Dec-19 15:04 40.707468 -122.430447 349 38205ft 463kts
02-Dec-19 15:05 40.835115 -122.452838 349 38200ft 461kts
02-Dec-19 15:06 40.962250 -122.475214 349 38201ft 460kts
02-Dec-19 15:07 41.088975 -122.497636 350 38200ft 458kts
02-Dec-19 15:08 41.213055 -122.519617 350 38199ft 457kts
02-Dec-19 15:09 41.338808 -122.541971 350 38198ft 456kts
02-Dec-19 15:10 41.464400 -122.564469 350 38195ft 455kts
02-Dec-19 15:11 41.590282 -122.580970 355 38190ft 455kts
02-Dec-19 15:12 41.716863 -122.588114 355 38190ft 455kts
02-Dec-19 15:13 41.843221 -122.596142 355 38189ft 454kts
02-Dec-19 15:14 41.969392 -122.604357 355 38185ft 454kts
02-Dec-19 15:15 42.094985 -122.612615 355 38175ft 448kts
02-Dec-19 15:16 42.219486 -122.620891 355 38162ft 449kts
02-Dec-19 15:17 42.344203 -122.629202 355 38154ft 447kts
02-Dec-19 15:18 42.468361 -122.637525 356 38153ft 446kts
02-Dec-19 15:19 42.591843 -122.645810 356 38155ft 444kts
02-Dec-19 15:20 42.715141 -122.654116 356 38162ft 442kts
02-Dec-19 15:21 42.837818 -122.662430 356 38169ft 440kts
02-Dec-19 15:22 42.960254 -122.670769 356 38177ft 439kts
02-Dec-19 15:23 43.081970 -122.679090 356 38182ft 437kts
02-Dec-19 15:24 43.203304 -122.687381 357 37897ft 439kts
02-Dec-19 15:25 43.324471 -122.695741 357 36200ft 432kts
02-Dec-19 15:26 43.444324 -122.704051 358 34505ft 431kts
02-Dec-19 15:27 43.563903 -122.712290 358 32806ft 431kts
02-Dec-19 15:28 43.684206 -122.720635 358 31107ft 434kts
02-Dec-19 15:29 43.805486 -122.729061 358 29407ft 438kts
02-Dec-19 15:30 43.928178 -122.737589 357 27711ft 447kts
02-Dec-19 15:31 44.052978 -122.746366 357 26009ft 438kts
02-Dec-19 15:32 44.169697 -122.752245 1 24424ft 402kts
02-Dec-19 15:33 44.278583 -122.741023 3 22673ft 383kts
02-Dec-19 15:34 44.382945 -122.730315 2 20966ft 368kts
02-Dec-19 15:35 44.483208 -122.720299 2 19325ft 354kts
02-Dec-19 15:36 44.579716 -122.710687 2 17727ft 343kts
02-Dec-19 15:37 44.674045 -122.701246 1 16124ft 336kts
02-Dec-19 15:38 44.766867 -122.691894 1 14340ft 330kts
02-Dec-19 15:39 44.856262 -122.682904 1 12805ft 311kts
02-Dec-19 15:40 44.940014 -122.674459 1 11546ft 295kts
02-Dec-19 15:41 45.021114 -122.666273 1 10442ft 288kts
02-Dec-19 15:42 45.099796 -122.658309 2 9460ft 277kts
02-Dec-19 15:43 45.176531 -122.650453 2 8740ft 275kts
02-Dec-19 15:44 45.252555 -122.647011 347 7986ft 270kts
02-Dec-19 15:45 45.322523 -122.682837 336 7258ft 265kts
02-Dec-19 15:46 45.388889 -122.719388 337 6423ft 252kts
02-Dec-19 15:47 45.452586 -122.754366 337 5564ft 237kts
02-Dec-19 15:48 45.505607 -122.803264 316 4621ft 225kts
02-Dec-19 15:49 45.551214 -122.863416 316 3913ft 224kts
02-Dec-19 15:50 45.601454 -122.908173 12 3160ft 217kts
02-Dec-19 15:51 45.652751 -122.875228 26 2989ft 193kts
02-Dec-19 15:52 45.671568 -122.810948 107 2988ft 193kts
02-Dec-19 15:53 45.643838 -122.746463 123 2176ft 183kts
02-Dec-19 15:54 45.621070 -122.688652 118 1125ft 148kts
02-Dec-19 15:55 45.601601 -122.638011 118 310ft 142kts
02-Dec-19 15:56 45.588291 -122.603872 119 38ft 26kts
02-Dec-19 15:57 45.588479 -122.602523 358 38ft 0kts
02-Dec-19 15:58 45.589369 -122.602377 24 38ft 11kts
02-Dec-19 15:59 45.589264 -122.599069 46 38ft 6kts
02-Dec-19 16:00 45.589572 -122.598785 31 38ft 0kts

Navigation Log

Ident Type
Flight plan parsing failed, navigation log unavailable